createdAt,value
2023-11-03T00:01:31.899Z,9.00
2023-11-03T00:04:00.096Z,9.00
2023-11-03T00:06:26.876Z,9.00
2023-11-03T00:08:53.622Z,9.00
2023-11-03T00:11:20.408Z,9.00
2023-11-03T00:13:47.153Z,9.00
2023-11-03T00:16:13.929Z,8.90
2023-11-03T00:18:40.677Z,8.80
2023-11-03T00:21:08.832Z,8.80
2023-11-03T00:23:35.637Z,8.80
2023-11-03T00:26:02.461Z,8.90
2023-11-03T00:28:29.244Z,8.90
2023-11-03T00:30:56.022Z,8.90
2023-11-03T00:33:22.918Z,8.90
2023-11-03T00:35:49.767Z,9.00
2023-11-03T00:38:18.016Z,8.90
2023-11-03T00:40:44.967Z,8.80
2023-11-03T00:43:11.778Z,8.80
2023-11-03T00:45:38.634Z,8.90
2023-11-03T00:48:05.563Z,8.90
2023-11-03T00:50:32.368Z,9.00
2023-11-03T00:52:59.161Z,9.00
2023-11-03T00:55:27.266Z,9.00
2023-11-03T00:57:54.095Z,8.90
2023-11-03T01:00:21.010Z,9.00
2023-11-03T01:02:47.838Z,9.00
2023-11-03T01:05:14.625Z,9.00
2023-11-03T01:07:41.442Z,8.90
2023-11-03T01:10:08.784Z,8.80
2023-11-03T01:12:36.983Z,8.90
2023-11-03T01:15:04.084Z,8.90
2023-11-03T01:17:30.928Z,8.70
2023-11-03T01:19:57.738Z,8.80
2023-11-03T01:22:24.497Z,8.80
2023-11-03T01:24:51.263Z,8.80
2023-11-03T01:27:18.026Z,8.80
2023-11-03T01:29:46.126Z,8.90
2023-11-03T01:32:12.871Z,9.00
2023-11-03T01:34:39.629Z,9.00
2023-11-03T01:37:06.642Z,8.90
2023-11-03T01:39:33.358Z,8.90
2023-11-03T01:42:00.064Z,9.00
2023-11-03T01:44:26.989Z,9.00
2023-11-03T01:46:55.193Z,8.90
2023-11-03T01:49:22.052Z,9.00
2023-11-03T01:51:49.019Z,9.00
2023-11-03T01:54:16.185Z,9.00
2023-11-03T01:56:42.957Z,9.10
2023-11-03T01:59:09.726Z,9.10
2023-11-03T02:01:36.967Z,9.10
2023-11-03T02:04:05.778Z,9.00
2023-11-03T02:06:32.902Z,9.10
2023-11-03T02:08:59.691Z,9.10
2023-11-03T02:11:27.506Z,9.00
2023-11-03T02:13:54.251Z,9.00
2023-11-03T02:16:21.073Z,9.10
2023-11-03T02:18:48.290Z,9.10
2023-11-03T02:21:16.457Z,9.20
2023-11-03T02:23:44.642Z,9.10
2023-11-03T02:26:11.357Z,9.10
2023-11-03T02:28:38.580Z,9.10
2023-11-03T02:31:05.376Z,9.10
2023-11-03T02:33:32.221Z,9.10
2023-11-03T02:35:59.018Z,9.00
2023-11-03T02:38:25.763Z,9.00
2023-11-03T02:40:54.003Z,9.10
2023-11-03T02:43:20.852Z,9.00
2023-11-03T02:45:47.591Z,9.10
2023-11-03T02:48:14.463Z,9.10
2023-11-03T02:50:41.294Z,9.10
2023-11-03T02:53:08.033Z,9.20
2023-11-03T02:55:35.642Z,9.10
2023-11-03T02:58:03.763Z,9.10
2023-11-03T03:00:30.503Z,9.20
2023-11-03T03:02:57.591Z,9.20
2023-11-03T03:05:24.340Z,9.20
2023-11-03T03:07:51.170Z,9.20
2023-11-03T03:10:18.028Z,9.20
2023-11-03T03:12:44.882Z,9.20
2023-11-03T03:15:13.025Z,9.10
2023-11-03T03:17:39.783Z,9.10
2023-11-03T03:20:07.343Z,9.10
2023-11-03T03:22:34.099Z,9.10
2023-11-03T03:25:01.140Z,9.20
2023-11-03T03:27:27.999Z,9.20
2023-11-03T03:29:54.725Z,9.20
2023-11-03T03:32:22.932Z,9.10
2023-11-03T03:34:49.769Z,9.20
2023-11-03T03:37:16.538Z,9.20
2023-11-03T03:39:43.309Z,9.20
2023-11-03T03:42:10.074Z,9.10
2023-11-03T03:44:39.075Z,9.10
2023-11-03T03:47:06.230Z,9.10
2023-11-03T03:49:34.343Z,8.90
2023-11-03T03:52:01.146Z,9.00
2023-11-03T03:54:27.886Z,9.10
2023-11-03T03:56:54.632Z,9.10
2023-11-03T03:59:21.377Z,9.10
2023-11-03T04:01:48.245Z,9.20
2023-11-03T04:04:15.069Z,9.20
2023-11-03T04:06:44.711Z,9.10
2023-11-03T04:09:11.528Z,9.10
2023-11-03T04:11:38.453Z,9.00
2023-11-03T04:14:05.348Z,9.10
2023-11-03T04:16:34.907Z,9.10
2023-11-03T04:19:01.709Z,9.00
2023-11-03T04:21:28.535Z,9.10
2023-11-03T04:23:56.711Z,9.00
2023-11-03T04:26:23.416Z,9.00
2023-11-03T04:28:50.284Z,8.90
2023-11-03T04:31:17.211Z,8.90
2023-11-03T04:33:44.074Z,9.00
2023-11-03T04:36:11.002Z,9.10
2023-11-03T04:38:37.789Z,9.10
2023-11-03T04:41:06.028Z,9.10
2023-11-03T04:43:32.746Z,9.10
2023-11-03T04:45:59.558Z,9.10
2023-11-03T04:48:26.358Z,9.00
2023-11-03T04:50:53.160Z,9.00
2023-11-03T04:53:19.923Z,9.00
2023-11-03T04:55:46.665Z,9.00
2023-11-03T04:58:16.143Z,9.10
2023-11-03T05:00:42.938Z,9.20
2023-11-03T05:03:09.823Z,9.10
2023-11-03T05:05:36.640Z,9.10
2023-11-03T05:08:03.555Z,9.20
2023-11-03T05:10:30.267Z,9.00
2023-11-03T05:12:57.246Z,9.10
2023-11-03T05:15:25.419Z,9.20
2023-11-03T05:17:52.221Z,9.20
2023-11-03T05:20:19.029Z,9.10
2023-11-03T05:22:45.756Z,9.00
2023-11-03T05:25:12.605Z,8.80
2023-11-03T05:27:39.423Z,8.80
2023-11-03T05:30:06.841Z,8.90
2023-11-03T05:32:34.971Z,9.00
2023-11-03T05:35:01.764Z,9.00
2023-11-03T05:37:28.659Z,9.00
2023-11-03T05:39:55.431Z,8.90
2023-11-03T05:42:28.499Z,8.80
2023-11-03T05:44:55.212Z,8.70
2023-11-03T05:47:21.941Z,8.70
2023-11-03T05:49:50.204Z,8.60
2023-11-03T05:52:16.990Z,8.60
2023-11-03T05:54:43.781Z,8.70
2023-11-03T05:57:10.601Z,8.80
2023-11-03T05:59:37.441Z,8.80
2023-11-03T06:02:04.144Z,8.70
2023-11-03T06:04:30.917Z,8.70
2023-11-03T06:06:59.051Z,8.70
2023-11-03T06:09:32.400Z,8.70
2023-11-03T06:11:59.174Z,8.60
2023-11-03T06:14:25.898Z,8.60
2023-11-03T06:16:52.682Z,8.60
2023-11-03T06:19:19.565Z,8.60
2023-11-03T06:21:46.390Z,8.60
2023-11-03T06:24:14.538Z,8.60
2023-11-03T06:26:41.378Z,8.50
2023-11-03T06:29:08.193Z,8.50
2023-11-03T06:31:37.075Z,8.60
2023-11-03T06:34:04.347Z,8.60
2023-11-03T06:36:40.449Z,8.60
2023-11-03T06:39:15.476Z,8.60
2023-11-03T06:41:42.290Z,8.60
2023-11-03T06:44:09.067Z,8.50
2023-11-03T06:46:35.768Z,8.50
2023-11-03T06:49:02.538Z,8.50
2023-11-03T06:51:29.365Z,8.50
2023-11-03T06:53:56.090Z,8.50
2023-11-03T06:56:24.150Z,8.50
2023-11-03T06:58:51.154Z,8.50
2023-11-03T07:01:17.959Z,8.50
2023-11-03T07:03:44.915Z,8.50
2023-11-03T07:06:11.706Z,8.60
2023-11-03T07:08:38.759Z,8.70
2023-11-03T07:11:12.850Z,8.60
2023-11-03T07:13:41.192Z,8.60
2023-11-03T07:16:08.590Z,8.60
2023-11-03T07:18:35.419Z,8.60
2023-11-03T07:21:02.202Z,8.50
2023-11-03T07:23:29.064Z,8.60
2023-11-03T07:25:55.796Z,8.60
2023-11-03T07:28:22.610Z,8.70
2023-11-03T07:30:50.794Z,8.60
2023-11-03T07:33:17.598Z,8.70
2023-11-03T07:35:44.456Z,8.80
2023-11-03T07:38:11.202Z,8.80
2023-11-03T07:40:37.973Z,8.70
2023-11-03T07:43:04.742Z,8.90
2023-11-03T07:45:31.495Z,8.90
2023-11-03T07:47:59.829Z,8.80
2023-11-03T07:50:26.682Z,8.90
2023-11-03T07:52:53.415Z,9.00
2023-11-03T07:55:20.343Z,9.00
2023-11-03T07:57:47.153Z,9.20
2023-11-03T08:00:14.120Z,9.30
2023-11-03T08:02:40.927Z,9.20
2023-11-03T08:05:09.806Z,9.10
2023-11-03T08:07:37.068Z,9.20
2023-11-03T08:10:10.807Z,9.20
2023-11-03T08:12:37.655Z,9.20
2023-11-03T08:15:10.778Z,9.20
2023-11-03T08:17:42.038Z,9.30
2023-11-03T08:20:10.761Z,9.60
2023-11-03T08:22:37.508Z,9.60
2023-11-03T08:25:04.644Z,9.60
2023-11-03T08:27:31.378Z,9.70
2023-11-03T08:29:58.146Z,9.60
2023-11-03T08:32:24.864Z,9.50
2023-11-03T08:34:51.710Z,9.60
2023-11-03T08:37:19.872Z,9.70
2023-11-03T08:39:46.641Z,9.70
2023-11-03T08:42:13.377Z,9.80
2023-11-03T08:44:40.111Z,9.80
2023-11-03T08:47:07.106Z,9.80
2023-11-03T08:49:33.938Z,9.70
2023-11-03T08:52:00.720Z,9.70
2023-11-03T08:54:28.894Z,9.60
2023-11-03T08:56:55.726Z,9.60
2023-11-03T08:59:22.565Z,9.50
2023-11-03T09:01:49.308Z,9.50
2023-11-03T09:04:16.110Z,9.60
2023-11-03T09:06:42.939Z,9.90
2023-11-03T09:09:16.535Z,9.90
2023-11-03T09:11:45.104Z,9.90
2023-11-03T09:14:12.000Z,9.80
2023-11-03T09:16:38.775Z,9.60
2023-11-03T09:19:06.404Z,9.50
2023-11-03T09:21:33.229Z,9.60
2023-11-03T09:23:59.976Z,9.60
2023-11-03T09:26:26.703Z,9.60
2023-11-03T09:28:57.715Z,9.70
2023-11-03T09:31:25.062Z,9.80
2023-11-03T09:33:52.006Z,9.80
2023-11-03T09:36:18.837Z,9.70
2023-11-03T09:38:45.632Z,9.70
2023-11-03T09:41:12.510Z,9.70
2023-11-03T09:43:39.521Z,9.70
2023-11-03T09:46:07.815Z,9.80
2023-11-03T09:48:34.711Z,9.90
2023-11-03T09:51:02.575Z,10.10
2023-11-03T09:53:29.858Z,10.10
2023-11-03T09:55:56.893Z,10.10
2023-11-03T09:58:23.740Z,10.00
2023-11-03T10:00:50.680Z,10.10
2023-11-03T10:03:18.946Z,10.00
2023-11-03T10:05:45.826Z,10.00
2023-11-03T10:08:12.714Z,9.90
2023-11-03T10:10:39.841Z,9.90
2023-11-03T10:13:07.239Z,10.00
2023-11-03T10:15:35.771Z,10.00
2023-11-03T10:18:02.612Z,10.10
2023-11-03T10:20:32.866Z,10.20
2023-11-03T10:23:00.102Z,10.20
2023-11-03T10:25:26.951Z,10.20
2023-11-03T10:27:54.051Z,10.10
2023-11-03T10:30:21.020Z,10.20
2023-11-03T10:32:48.172Z,10.30
2023-11-03T10:35:14.902Z,10.20
2023-11-03T10:37:43.240Z,10.30
2023-11-03T10:40:10.616Z,10.50
2023-11-03T10:42:40.072Z,10.70
2023-11-03T10:45:07.625Z,10.70
2023-11-03T10:47:38.901Z,10.80
2023-11-03T10:50:08.433Z,10.80
2023-11-03T10:52:39.805Z,11.00
2023-11-03T10:55:11.222Z,11.20
2023-11-03T10:57:40.987Z,11.00
2023-11-03T11:00:11.538Z,11.00
2023-11-03T11:02:41.890Z,11.00
2023-11-03T11:05:12.593Z,10.90
2023-11-03T11:07:40.723Z,11.00
2023-11-03T11:10:09.168Z,11.10
2023-11-03T11:12:48.796Z,11.10
2023-11-03T11:15:16.386Z,11.10
2023-11-03T11:17:43.196Z,11.20
2023-11-03T11:20:11.364Z,11.10
2023-11-03T11:22:40.638Z,11.10
2023-11-03T11:25:09.188Z,11.10
2023-11-03T11:27:37.173Z,11.00
2023-11-03T11:30:11.949Z,11.10
2023-11-03T11:32:38.848Z,11.30
2023-11-03T11:35:08.176Z,11.30
2023-11-03T11:37:35.068Z,11.40
2023-11-03T11:40:02.817Z,11.50
2023-11-03T11:42:31.393Z,11.50
2023-11-03T11:44:58.831Z,11.70
2023-11-03T11:47:26.279Z,11.60
2023-11-03T11:49:53.515Z,11.70
2023-11-03T11:52:21.764Z,11.80
2023-11-03T11:54:48.501Z,11.90
2023-11-03T11:57:15.707Z,11.90
2023-11-03T11:59:43.833Z,12.00
2023-11-03T12:02:10.833Z,12.20
2023-11-03T12:04:40.167Z,12.20
2023-11-03T12:07:07.131Z,12.30
2023-11-03T12:09:37.256Z,12.30
2023-11-03T12:12:04.246Z,12.30
2023-11-03T12:14:31.006Z,12.60
2023-11-03T12:16:59.332Z,12.40
2023-11-03T12:19:26.201Z,12.50
2023-11-03T12:21:53.043Z,12.50
2023-11-03T12:24:19.830Z,12.60
2023-11-03T12:26:46.636Z,12.70
2023-11-03T12:29:26.958Z,12.60
2023-11-03T12:31:53.789Z,12.40
2023-11-03T12:34:22.148Z,12.40
2023-11-03T12:36:48.975Z,12.40
2023-11-03T12:39:16.082Z,12.40
2023-11-03T12:41:42.992Z,12.40
2023-11-03T12:44:10.214Z,12.20
2023-11-03T12:46:46.392Z,12.20
2023-11-03T12:49:13.309Z,12.30
2023-11-03T12:51:41.533Z,12.30
2023-11-03T12:54:13.058Z,12.30
2023-11-03T12:56:42.966Z,12.40
2023-11-03T12:59:09.712Z,12.40
2023-11-03T13:01:36.532Z,12.60
2023-11-03T13:04:03.446Z,12.80
2023-11-03T13:06:30.218Z,13.00
2023-11-03T13:08:58.344Z,12.70
2023-11-03T13:11:25.105Z,12.60
2023-11-03T13:13:51.827Z,12.50
2023-11-03T13:16:18.620Z,12.60
2023-11-03T13:18:45.431Z,12.80
2023-11-03T13:21:12.235Z,12.90
2023-11-03T13:23:38.987Z,12.90
2023-11-03T13:26:07.151Z,12.80
2023-11-03T13:28:33.899Z,12.90
2023-11-03T13:31:00.757Z,12.90
2023-11-03T13:33:27.538Z,12.80
2023-11-03T13:35:54.310Z,12.80
2023-11-03T13:38:21.025Z,12.80
2023-11-03T13:40:47.812Z,12.70
2023-11-03T13:43:18.876Z,12.50
2023-11-03T13:45:45.852Z,12.60
2023-11-03T13:48:12.799Z,12.40
2023-11-03T13:50:39.615Z,12.30
2023-11-03T13:53:06.387Z,12.20
2023-11-03T13:55:33.266Z,12.40
2023-11-03T13:58:01.804Z,12.50
2023-11-03T14:00:30.836Z,12.40
2023-11-03T14:02:57.683Z,12.30
2023-11-03T14:05:24.464Z,12.20
2023-11-03T14:07:51.352Z,12.20
2023-11-03T14:10:18.179Z,12.20
2023-11-03T14:12:45.846Z,12.20
2023-11-03T14:15:12.981Z,12.20
2023-11-03T14:17:41.241Z,12.30
2023-11-03T14:20:08.794Z,12.30
2023-11-03T14:22:35.680Z,12.30
2023-11-03T14:25:05.723Z,12.40
2023-11-03T14:27:32.598Z,12.40
2023-11-03T14:29:59.595Z,12.40
2023-11-03T14:32:26.355Z,12.40
2023-11-03T14:34:54.515Z,12.50
2023-11-03T14:37:21.342Z,12.40
2023-11-03T14:39:48.171Z,12.20
2023-11-03T14:42:14.915Z,12.20
2023-11-03T14:44:42.940Z,12.30
2023-11-03T14:47:09.866Z,12.20
2023-11-03T14:49:36.686Z,12.10
2023-11-03T14:52:05.808Z,12.10
2023-11-03T14:54:32.655Z,12.00
2023-11-03T14:56:59.389Z,12.20
2023-11-03T14:59:27.990Z,12.20
2023-11-03T15:01:54.921Z,12.30
2023-11-03T15:04:21.713Z,12.20
2023-11-03T15:06:48.487Z,12.00
2023-11-03T15:09:16.582Z,12.00
2023-11-03T15:11:43.293Z,12.00
2023-11-03T15:14:10.040Z,12.00
2023-11-03T15:16:36.936Z,12.00
2023-11-03T15:19:04.024Z,11.80
2023-11-03T15:21:30.855Z,11.60
2023-11-03T15:23:57.636Z,11.60
2023-11-03T15:26:25.805Z,11.80
2023-11-03T15:28:52.580Z,12.00
2023-11-03T15:31:19.454Z,12.00
2023-11-03T15:33:46.275Z,12.10
2023-11-03T15:36:13.140Z,12.00
2023-11-03T15:38:39.836Z,11.80
2023-11-03T15:41:06.692Z,11.80
2023-11-03T15:43:35.113Z,11.80
2023-11-03T15:46:02.349Z,11.80
2023-11-03T15:48:29.532Z,11.70
2023-11-03T15:50:56.415Z,11.50
2023-11-03T15:53:23.283Z,11.60
2023-11-03T15:55:52.591Z,11.40
2023-11-03T15:58:19.543Z,11.30
2023-11-03T16:00:48.140Z,11.20
2023-11-03T16:03:15.104Z,11.20
2023-11-03T16:05:42.120Z,11.10
2023-11-03T16:08:08.940Z,10.90
2023-11-03T16:10:35.696Z,10.80
2023-11-03T16:13:02.507Z,10.70
2023-11-03T16:15:29.292Z,10.80
2023-11-03T16:17:57.493Z,10.80
2023-11-03T16:20:24.359Z,10.80
2023-11-03T16:22:51.224Z,10.70
2023-11-03T16:25:18.190Z,10.60
2023-11-03T16:27:44.960Z,10.70
2023-11-03T16:30:11.917Z,10.80
2023-11-03T16:32:41.001Z,10.70
2023-11-03T16:35:09.929Z,10.70
2023-11-03T16:37:37.111Z,10.70
2023-11-03T16:40:04.746Z,10.80
2023-11-03T16:42:31.815Z,10.90
2023-11-03T16:44:58.638Z,11.00
2023-11-03T16:47:26.017Z,10.90
2023-11-03T16:49:54.320Z,10.70
2023-11-03T16:52:30.417Z,10.60
2023-11-03T16:54:58.728Z,10.50
2023-11-03T16:57:32.438Z,10.50
2023-11-03T16:59:59.620Z,10.50
2023-11-03T17:02:34.017Z,10.50
2023-11-03T17:05:08.032Z,10.50
2023-11-03T17:07:43.541Z,10.40
2023-11-03T17:10:13.655Z,10.30
2023-11-03T17:12:56.942Z,10.20
2023-11-03T17:15:29.179Z,10.10
2023-11-03T17:18:02.661Z,10.20
2023-11-03T17:20:29.986Z,10.20
2023-11-03T17:23:05.388Z,10.10
2023-11-03T17:25:32.424Z,10.20
2023-11-03T17:28:05.418Z,10.30
2023-11-03T17:30:33.297Z,10.20
2023-11-03T17:33:01.456Z,10.20
2023-11-03T17:35:37.847Z,10.20
2023-11-03T17:38:06.629Z,10.10
2023-11-03T17:40:35.258Z,10.10
2023-11-03T17:43:08.364Z,10.00
2023-11-03T17:45:41.285Z,10.00
2023-11-03T17:48:08.065Z,9.80
2023-11-03T17:50:41.279Z,9.90
2023-11-03T17:53:16.307Z,9.90
2023-11-03T17:55:49.303Z,9.90
2023-11-03T17:58:16.097Z,9.90
2023-11-03T18:00:42.900Z,9.90
2023-11-03T18:03:16.276Z,10.00
2023-11-03T18:05:49.354Z,9.90
2023-11-03T18:08:24.376Z,9.80
2023-11-03T18:10:51.199Z,9.80
2023-11-03T18:13:24.316Z,9.70
2023-11-03T18:15:51.151Z,9.80
2023-11-03T18:18:24.326Z,9.80
2023-11-03T18:20:53.847Z,9.70
2023-11-03T18:23:28.289Z,9.70
2023-11-03T18:25:55.052Z,9.80
2023-11-03T18:28:28.336Z,9.90
2023-11-03T18:30:55.200Z,10.00
2023-11-03T18:33:28.523Z,10.20
2023-11-03T18:36:01.296Z,10.10
2023-11-03T18:38:36.318Z,10.10
2023-11-03T18:41:03.086Z,10.00
2023-11-03T18:43:36.387Z,9.90
2023-11-03T18:46:03.232Z,10.00
2023-11-03T18:48:36.302Z,10.00
2023-11-03T18:51:25.416Z,9.90
2023-11-03T18:57:45.269Z,9.90
2023-11-03T19:00:22.798Z,9.80
2023-11-03T19:04:03.994Z,9.70
2023-11-03T19:06:03.348Z,9.60
2023-11-03T19:07:54.445Z,9.60
2023-11-03T19:10:29.300Z,9.60
2023-11-03T19:12:56.033Z,9.60
2023-11-03T19:15:22.960Z,9.60
2023-11-03T19:17:56.323Z,9.60
2023-11-03T19:20:23.090Z,9.50
2023-11-03T19:22:56.289Z,9.40
2023-11-03T19:25:24.412Z,9.50
2023-11-03T19:27:57.299Z,9.40
2023-11-03T19:30:30.372Z,9.40
2023-11-03T19:32:57.216Z,9.40
2023-11-03T19:35:30.392Z,9.40
2023-11-03T19:37:57.125Z,9.30
2023-11-03T19:40:31.395Z,9.40
2023-11-03T19:42:58.140Z,9.60
2023-11-03T19:45:24.875Z,9.60
2023-11-03T19:47:58.376Z,9.60
2023-11-03T19:50:25.161Z,9.60
2023-11-03T19:52:58.304Z,9.70
2023-11-03T19:55:26.401Z,9.50
2023-11-03T19:57:53.172Z,9.60
2023-11-03T20:00:29.792Z,9.50
2023-11-03T20:03:04.408Z,9.50
2023-11-03T20:05:37.326Z,9.40
2023-11-03T20:08:04.217Z,9.40
2023-11-03T20:10:39.340Z,9.40
2023-11-03T20:13:13.319Z,9.40
2023-11-03T20:15:46.374Z,9.30
2023-11-03T20:18:13.322Z,9.30
2023-11-03T20:20:40.182Z,9.40
2023-11-03T20:23:13.306Z,9.40
2023-11-03T20:25:41.368Z,9.30
2023-11-03T20:28:14.290Z,9.20
2023-11-03T20:30:41.364Z,9.30
2023-11-03T20:33:14.356Z,9.20
2023-11-03T20:35:47.355Z,9.20
2023-11-03T20:38:14.185Z,9.20
2023-11-03T20:40:48.307Z,9.20
2023-11-03T20:43:15.026Z,9.10
2023-11-03T20:45:48.385Z,9.10
2023-11-03T20:48:15.328Z,9.10
2023-11-03T20:50:48.301Z,9.00
2023-11-03T20:53:15.032Z,9.10
2023-11-03T20:55:49.344Z,9.00
2023-11-03T20:58:16.089Z,9.10
2023-11-03T21:00:49.431Z,9.10
2023-11-03T21:03:18.280Z,9.10
2023-11-03T21:05:45.402Z,9.00
2023-11-03T21:08:18.390Z,9.10
2023-11-03T21:10:46.510Z,9.00
2023-11-03T21:13:19.278Z,8.90
2023-11-03T21:15:46.064Z,8.90
2023-11-03T21:18:19.378Z,9.00
2023-11-03T21:20:46.114Z,9.00
2023-11-03T21:23:12.805Z,9.00
2023-11-03T21:25:46.298Z,9.10
2023-11-03T21:28:21.328Z,9.10
2023-11-03T21:30:54.316Z,9.10
2023-11-03T21:33:27.547Z,9.10
2023-11-03T21:36:01.381Z,9.10
2023-11-03T21:38:28.074Z,9.10
2023-11-03T21:41:01.339Z,9.20
2023-11-03T21:43:29.409Z,9.10
2023-11-03T21:46:02.450Z,9.00
2023-11-03T21:48:29.543Z,9.00
2023-11-03T21:51:03.309Z,9.00
2023-11-03T21:53:30.014Z,9.00
2023-11-03T21:56:03.314Z,8.90
2023-11-03T21:58:31.393Z,8.80
2023-11-03T22:01:04.326Z,8.80
2023-11-03T22:03:31.271Z,8.90
2023-11-03T22:05:58.125Z,9.00
2023-11-03T22:08:31.313Z,8.90
2023-11-03T22:10:58.065Z,9.00
2023-11-03T22:13:24.785Z,8.90
2023-11-03T22:15:59.327Z,8.80
2023-11-03T22:18:32.402Z,8.90
2023-11-03T22:20:59.179Z,8.90
2023-11-03T22:23:32.299Z,8.90
2023-11-03T22:26:11.531Z,9.00
2023-11-03T22:28:48.336Z,9.00
2023-11-03T22:31:16.427Z,9.00
2023-11-03T22:33:49.552Z,9.00
2023-11-03T22:36:16.391Z,8.90
2023-11-03T22:38:49.313Z,9.00
2023-11-03T22:41:22.323Z,9.20
2023-11-03T22:43:49.022Z,9.20
2023-11-03T22:46:23.336Z,9.10
2023-11-03T22:48:50.188Z,9.20
2023-11-03T22:51:17.217Z,9.20
2023-11-03T22:53:50.337Z,9.20
2023-11-03T22:56:25.319Z,9.20
2023-11-03T22:58:58.342Z,9.40
2023-11-03T23:01:26.398Z,9.50
2023-11-03T23:03:59.344Z,9.40
2023-11-03T23:06:32.408Z,9.50
2023-11-03T23:08:59.222Z,9.60
2023-11-03T23:11:32.345Z,9.70
2023-11-03T23:13:59.194Z,9.60
2023-11-03T23:16:34.306Z,9.60
2023-11-03T23:19:01.126Z,9.70
2023-11-03T23:21:34.363Z,9.70
2023-11-03T23:24:01.099Z,9.90
2023-11-03T23:26:34.331Z,9.90
2023-11-03T23:29:01.260Z,9.80
2023-11-03T23:31:36.325Z,9.90
2023-11-03T23:34:03.136Z,10.00
2023-11-03T23:36:36.360Z,10.00
2023-11-03T23:39:03.243Z,9.80
2023-11-03T23:41:36.338Z,9.80
2023-11-03T23:44:03.155Z,9.90
2023-11-03T23:46:31.224Z,10.00
2023-11-03T23:49:04.405Z,10.00
2023-11-03T23:51:37.680Z,10.00
2023-11-03T23:54:11.345Z,9.90
2023-11-03T23:56:38.248Z,9.90
2023-11-03T23:59:11.355Z,9.90
